createdAt,value
2019-03-24T00:02:27.371Z,6.06
2019-03-24T00:04:58.182Z,6.06
2019-03-24T00:07:29.007Z,5.94
2019-03-24T00:10:00.362Z,5.83
2019-03-24T00:12:32.406Z,5.79
2019-03-24T00:15:03.759Z,5.68
2019-03-24T00:17:35.103Z,5.64
2019-03-24T00:20:06.583Z,5.58
2019-03-24T00:22:37.994Z,5.53
2019-03-24T00:25:08.855Z,5.51
2019-03-24T00:27:39.776Z,5.48
2019-03-24T00:30:12.457Z,5.52
2019-03-24T00:32:43.709Z,5.44
2019-03-24T00:35:14.759Z,5.36
2019-03-24T00:37:46.102Z,5.35
2019-03-24T00:40:17.633Z,5.32
2019-03-24T00:42:48.804Z,5.23
2019-03-24T00:45:19.641Z,5.19
2019-03-24T00:47:50.559Z,5.14
2019-03-24T00:50:21.692Z,5.14
2019-03-24T00:52:52.576Z,5.16
2019-03-24T00:55:23.703Z,5.12
2019-03-24T00:57:54.849Z,5.10
2019-03-24T01:00:43.083Z,5.03
2019-03-24T01:03:15.166Z,5.00
2019-03-24T01:05:46.556Z,4.93
2019-03-24T01:08:17.397Z,4.88
2019-03-24T01:10:48.156Z,4.85
2019-03-24T01:13:19.343Z,4.84
2019-03-24T01:15:50.194Z,4.80
2019-03-24T01:18:21.309Z,4.82
2019-03-24T01:20:52.453Z,4.83
2019-03-24T01:23:23.437Z,4.76
2019-03-24T01:25:54.663Z,4.79
2019-03-24T01:28:25.491Z,4.76
2019-03-24T01:30:56.468Z,4.73
2019-03-24T01:33:27.240Z,4.73
2019-03-24T01:35:57.990Z,4.75
2019-03-24T01:38:29.673Z,4.68
2019-03-24T01:41:00.792Z,4.61
2019-03-24T01:43:32.727Z,4.54
2019-03-24T01:46:03.788Z,4.50
2019-03-24T01:48:34.692Z,4.52
2019-03-24T01:51:05.546Z,4.49
2019-03-24T01:53:36.334Z,4.43
2019-03-24T01:56:08.400Z,4.40
2019-03-24T01:58:39.522Z,4.35
2019-03-24T02:01:10.719Z,4.32
2019-03-24T02:03:41.538Z,4.24
2019-03-24T02:06:12.845Z,4.20
2019-03-24T02:08:43.704Z,4.18
2019-03-24T02:11:14.492Z,4.18
2019-03-24T02:13:45.759Z,4.17
2019-03-24T02:16:16.579Z,4.11
2019-03-24T02:18:47.766Z,4.10
2019-03-24T02:21:18.887Z,4.09
2019-03-24T02:23:50.027Z,4.03
2019-03-24T02:26:21.451Z,3.93
2019-03-24T02:28:52.432Z,3.89
2019-03-24T02:31:23.340Z,3.83
2019-03-24T02:33:54.287Z,3.79
2019-03-24T02:36:25.200Z,3.80
2019-03-24T02:38:56.709Z,3.78
2019-03-24T02:41:27.527Z,3.74
2019-03-24T02:43:58.329Z,3.68
2019-03-24T02:46:29.092Z,3.62
2019-03-24T02:49:00.880Z,3.59
2019-03-24T02:51:31.744Z,3.61
2019-03-24T02:54:02.693Z,3.62
2019-03-24T02:56:33.827Z,3.57
2019-03-24T02:59:05.017Z,3.57
2019-03-24T03:01:35.846Z,3.57
2019-03-24T03:04:06.748Z,3.54
2019-03-24T03:06:37.573Z,3.51
2019-03-24T03:09:09.130Z,3.54
2019-03-24T03:11:40.059Z,3.48
2019-03-24T03:14:10.846Z,3.48
2019-03-24T03:19:37.543Z,3.41
2019-03-24T03:22:08.970Z,3.39
2019-03-24T03:24:39.840Z,3.37
2019-03-24T03:27:10.918Z,3.35
2019-03-24T03:29:41.995Z,3.36
2019-03-24T03:32:12.813Z,3.32
2019-03-24T03:34:44.395Z,3.28
2019-03-24T03:37:15.601Z,3.27
2019-03-24T03:39:46.880Z,3.25
2019-03-24T03:42:18.837Z,3.21
2019-03-24T03:44:49.808Z,3.19
2019-03-24T03:47:20.539Z,3.18
2019-03-24T03:49:51.360Z,3.19
2019-03-24T03:52:22.149Z,3.19
2019-03-24T03:54:52.954Z,3.17
2019-03-24T03:57:23.791Z,3.16
2019-03-24T03:59:54.903Z,3.15
2019-03-24T04:02:26.406Z,3.10
2019-03-24T04:04:57.233Z,3.05
2019-03-24T04:07:27.983Z,3.05
2019-03-24T04:09:58.787Z,3.06
2019-03-24T04:12:29.578Z,3.04
2019-03-24T04:15:01.637Z,3.04
2019-03-24T04:17:32.781Z,3.04
2019-03-24T04:20:04.637Z,3.03
2019-03-24T04:22:35.982Z,3.02
2019-03-24T04:25:07.085Z,2.99
2019-03-24T04:27:37.862Z,3.01
2019-03-24T04:30:09.306Z,2.98
2019-03-24T04:32:40.052Z,2.96
2019-03-24T04:35:11.305Z,3.02
2019-03-24T04:37:42.215Z,2.96
2019-03-24T04:40:13.141Z,3.01
2019-03-24T04:42:44.349Z,3.03
2019-03-24T04:45:15.582Z,3.13
2019-03-24T04:47:46.393Z,3.16
2019-03-24T04:50:17.286Z,3.08
2019-03-24T04:52:48.089Z,3.04
2019-03-24T04:55:18.865Z,2.98
2019-03-24T04:57:49.646Z,2.90
2019-03-24T05:00:25.509Z,2.92
2019-03-24T05:02:56.331Z,2.95
2019-03-24T05:05:27.237Z,2.90
2019-03-24T05:07:58.002Z,2.69
2019-03-24T05:10:29.102Z,2.69
2019-03-24T05:12:59.910Z,2.64
2019-03-24T05:15:31.065Z,2.61
2019-03-24T05:18:02.179Z,2.53
2019-03-24T05:20:33.021Z,2.51
2019-03-24T05:23:04.433Z,2.49
2019-03-24T05:25:35.244Z,2.49
2019-03-24T05:28:06.035Z,2.52
2019-03-24T05:30:36.812Z,2.48
2019-03-24T05:33:07.698Z,2.43
2019-03-24T05:35:38.502Z,2.38
2019-03-24T05:38:09.691Z,2.37
2019-03-24T05:40:40.764Z,2.38
2019-03-24T05:43:11.569Z,2.34
2019-03-24T05:45:43.241Z,2.33
2019-03-24T05:48:14.050Z,2.37
2019-03-24T05:50:44.840Z,2.40
2019-03-24T05:53:15.968Z,2.44
2019-03-24T05:55:46.829Z,2.53
2019-03-24T05:58:18.391Z,2.59
2019-03-24T06:00:49.979Z,2.67
2019-03-24T06:03:20.730Z,2.73
2019-03-24T06:05:52.559Z,2.77
2019-03-24T06:08:23.377Z,2.81
2019-03-24T06:10:55.138Z,2.87
2019-03-24T06:13:25.917Z,2.93
2019-03-24T06:15:58.237Z,3.00
2019-03-24T06:18:29.357Z,3.11
2019-03-24T06:21:00.504Z,3.18
2019-03-24T06:23:31.647Z,3.22
2019-03-24T06:26:02.520Z,3.26
2019-03-24T06:28:33.265Z,3.31
2019-03-24T06:31:04.356Z,3.38
2019-03-24T06:33:35.174Z,3.46
2019-03-24T06:36:05.954Z,3.58
2019-03-24T06:38:37.206Z,3.70
2019-03-24T06:41:08.052Z,3.82
2019-03-24T06:43:39.109Z,3.95
2019-03-24T06:46:09.928Z,4.05
2019-03-24T06:48:40.749Z,4.17
2019-03-24T06:51:11.710Z,4.30
2019-03-24T06:53:42.489Z,4.40
2019-03-24T06:56:13.269Z,4.52
2019-03-24T06:58:45.591Z,4.60
2019-03-24T07:01:17.574Z,4.76
2019-03-24T07:03:48.401Z,4.92
2019-03-24T07:06:23.664Z,5.04
2019-03-24T07:08:56.244Z,5.13
2019-03-24T07:11:27.592Z,5.20
2019-03-24T07:13:58.738Z,5.33
2019-03-24T07:16:30.173Z,5.44
2019-03-24T07:19:01.764Z,5.57
2019-03-24T07:21:34.247Z,5.70
2019-03-24T07:24:06.064Z,5.82
2019-03-24T07:26:36.941Z,5.94
2019-03-24T07:29:08.077Z,6.10
2019-03-24T07:31:38.968Z,6.23
2019-03-24T07:34:10.642Z,6.46
2019-03-24T07:36:42.484Z,6.46
2019-03-24T07:39:14.093Z,6.60
2019-03-24T07:41:52.769Z,6.72
2019-03-24T07:44:31.689Z,6.76
2019-03-24T07:47:06.984Z,6.83
2019-03-24T07:49:38.021Z,6.97
2019-03-24T07:52:09.435Z,7.05
2019-03-24T07:54:40.951Z,7.19
2019-03-24T07:57:12.546Z,7.30
2019-03-24T07:59:44.469Z,7.44
2019-03-24T08:02:24.185Z,7.54
2019-03-24T08:04:58.840Z,7.63
2019-03-24T08:07:33.174Z,7.72
2019-03-24T08:10:05.768Z,7.82
2019-03-24T08:12:36.790Z,7.93
2019-03-24T08:15:09.184Z,7.99
2019-03-24T08:17:40.066Z,8.11
2019-03-24T08:20:12.434Z,8.21
2019-03-24T08:22:44.060Z,8.37
2019-03-24T08:25:14.913Z,8.47
2019-03-24T08:27:45.813Z,8.59
2019-03-24T08:30:20.896Z,8.70
2019-03-24T08:32:51.888Z,8.86
2019-03-24T08:35:23.176Z,9.01
2019-03-24T08:37:54.442Z,9.06
2019-03-24T08:40:26.194Z,9.06
2019-03-24T08:42:57.125Z,9.10
2019-03-24T08:45:29.642Z,9.18
2019-03-24T08:48:01.031Z,9.36
2019-03-24T08:50:33.318Z,9.30
2019-03-24T08:53:04.389Z,9.44
2019-03-24T08:55:36.567Z,9.50
2019-03-24T08:58:07.863Z,9.67
2019-03-24T09:00:38.735Z,9.74
2019-03-24T09:03:10.633Z,9.81
2019-03-24T09:05:42.054Z,9.86
2019-03-24T09:08:14.757Z,10.08
2019-03-24T09:10:46.573Z,10.27
2019-03-24T09:13:20.740Z,10.35
2019-03-24T09:15:52.824Z,10.53
2019-03-24T09:18:25.502Z,10.64
2019-03-24T09:20:57.366Z,10.73
2019-03-24T09:23:30.564Z,10.72
2019-03-24T09:26:05.019Z,10.97
2019-03-24T09:28:38.229Z,11.22
2019-03-24T09:31:11.942Z,11.25
2019-03-24T09:33:43.195Z,11.61
2019-03-24T09:36:15.827Z,11.75
2019-03-24T09:38:47.904Z,11.90
2019-03-24T09:41:19.425Z,11.98
2019-03-24T09:43:50.859Z,12.28
2019-03-24T09:46:22.502Z,12.46
2019-03-24T09:49:02.723Z,12.83
2019-03-24T09:51:28.194Z,13.32
2019-03-24T09:54:03.400Z,14.17
2019-03-24T09:56:34.265Z,14.99
2019-03-24T09:59:05.505Z,15.36
2019-03-24T10:01:37.589Z,15.65
2019-03-24T10:04:09.016Z,16.14
2019-03-24T10:06:40.050Z,16.71
2019-03-24T10:09:11.839Z,17.13
2019-03-24T10:11:43.013Z,17.46
2019-03-24T10:14:14.032Z,17.67
2019-03-24T10:16:45.021Z,17.88
2019-03-24T10:19:15.879Z,17.99
2019-03-24T10:21:48.808Z,18.38
2019-03-24T10:24:19.805Z,18.68
2019-03-24T10:26:50.690Z,19.01
2019-03-24T10:29:21.653Z,19.21
2019-03-24T10:31:52.948Z,19.38
2019-03-24T10:34:25.480Z,19.81
2019-03-24T10:36:56.770Z,19.73
2019-03-24T10:39:29.082Z,19.66
2019-03-24T10:42:00.118Z,20.26
2019-03-24T10:44:31.343Z,20.68
2019-03-24T10:47:02.579Z,21.23
2019-03-24T10:49:35.920Z,21.53
2019-03-24T10:52:07.219Z,21.91
2019-03-24T10:54:38.154Z,21.27
2019-03-24T10:57:09.421Z,22.02
2019-03-24T10:59:40.675Z,21.98
2019-03-24T11:02:13.068Z,22.29
2019-03-24T11:04:44.013Z,22.44
2019-03-24T11:07:23.823Z,23.07
2019-03-24T11:09:54.820Z,23.82
2019-03-24T11:12:27.788Z,23.50
2019-03-24T11:14:58.684Z,23.25
2019-03-24T11:17:29.974Z,24.51
2019-03-24T11:20:00.935Z,24.43
2019-03-24T11:22:31.938Z,25.18
2019-03-24T11:25:02.859Z,25.05
2019-03-24T11:27:33.699Z,25.82
2019-03-24T11:30:05.836Z,26.59
2019-03-24T11:32:37.357Z,26.51
2019-03-24T11:35:10.320Z,26.53
2019-03-24T11:37:41.294Z,27.16
2019-03-24T11:40:14.337Z,27.07
2019-03-24T11:42:45.071Z,26.72
2019-03-24T11:45:16.439Z,27.04
2019-03-24T11:47:47.545Z,26.44
2019-03-24T11:50:18.734Z,27.28
2019-03-24T11:52:49.538Z,28.39
2019-03-24T11:55:21.569Z,28.94
2019-03-24T11:57:52.390Z,29.17
2019-03-24T12:00:35.167Z,28.23
2019-03-24T12:03:06.744Z,28.87
2019-03-24T12:05:38.245Z,29.21
2019-03-24T12:08:09.214Z,29.50
2019-03-24T12:10:40.054Z,29.17
2019-03-24T12:13:10.943Z,27.95
2019-03-24T12:15:41.846Z,28.26
2019-03-24T12:18:12.599Z,29.24
2019-03-24T12:20:43.681Z,29.25
2019-03-24T12:23:15.355Z,29.73
2019-03-24T12:25:46.186Z,31.11
2019-03-24T12:28:18.353Z,31.44
2019-03-24T12:30:49.597Z,30.69
2019-03-24T12:33:20.452Z,30.10
2019-03-24T12:35:51.682Z,29.51
2019-03-24T12:38:22.809Z,29.85
2019-03-24T12:40:54.005Z,30.28
2019-03-24T12:43:26.346Z,30.52
2019-03-24T12:45:57.114Z,30.77
2019-03-24T12:48:27.965Z,29.68
2019-03-24T12:50:59.556Z,31.14
2019-03-24T12:53:30.474Z,31.29
2019-03-24T12:56:01.270Z,31.24
2019-03-24T12:58:32.508Z,31.97
2019-03-24T13:01:03.686Z,30.93
2019-03-24T13:03:35.944Z,31.60
2019-03-24T13:06:07.060Z,32.09
2019-03-24T13:08:38.866Z,32.06
2019-03-24T13:11:09.791Z,33.57
2019-03-24T13:13:40.609Z,32.22
2019-03-24T13:16:11.429Z,31.03
2019-03-24T13:18:42.798Z,31.50
2019-03-24T13:21:14.002Z,31.33
2019-03-24T13:23:44.875Z,32.74
2019-03-24T13:26:15.629Z,32.66
2019-03-24T13:28:46.556Z,32.63
2019-03-24T13:31:17.377Z,33.04
2019-03-24T13:33:48.222Z,34.07
2019-03-24T13:36:19.949Z,34.84
2019-03-24T13:38:52.249Z,34.33
2019-03-24T13:41:24.003Z,33.97
2019-03-24T13:43:55.145Z,34.16
2019-03-24T13:46:26.278Z,34.48
2019-03-24T13:48:58.017Z,33.43
2019-03-24T13:51:30.501Z,33.13
2019-03-24T13:54:01.620Z,34.54
2019-03-24T13:56:32.712Z,34.45
2019-03-24T13:59:03.516Z,33.69
2019-03-24T14:01:34.521Z,32.37
2019-03-24T14:04:05.257Z,33.76
2019-03-24T14:06:36.749Z,33.81
2019-03-24T14:09:10.795Z,35.08
2019-03-24T14:11:41.994Z,35.31
2019-03-24T14:14:12.825Z,35.20
2019-03-24T14:16:46.459Z,36.40
2019-03-24T14:19:17.752Z,34.78
2019-03-24T14:21:49.139Z,33.99
2019-03-24T14:24:19.958Z,34.15
2019-03-24T14:26:50.853Z,34.83
2019-03-24T14:29:21.670Z,35.47
2019-03-24T14:31:52.505Z,36.21
2019-03-24T14:34:24.158Z,36.38
2019-03-24T14:36:56.929Z,36.32
2019-03-24T14:39:28.104Z,35.89
2019-03-24T14:41:59.305Z,36.84
2019-03-24T14:44:31.431Z,34.10
2019-03-24T14:47:02.622Z,33.57
2019-03-24T14:49:34.517Z,33.78
2019-03-24T14:52:06.477Z,33.96
2019-03-24T14:54:37.344Z,34.01
2019-03-24T14:57:08.157Z,33.85
2019-03-24T14:59:39.925Z,32.61
2019-03-24T15:02:11.136Z,30.98
2019-03-24T15:04:41.941Z,30.98
2019-03-24T15:07:12.740Z,31.62
2019-03-24T15:09:44.096Z,32.64
2019-03-24T15:12:15.060Z,30.44
2019-03-24T15:14:46.238Z,30.87
2019-03-24T15:17:17.114Z,32.79
2019-03-24T15:19:48.182Z,32.56
2019-03-24T15:22:19.658Z,32.42
2019-03-24T15:24:50.642Z,32.06
2019-03-24T15:27:21.956Z,31.10
2019-03-24T15:29:53.136Z,32.60
2019-03-24T15:32:24.013Z,32.24
2019-03-24T15:34:55.598Z,32.25
2019-03-24T15:37:27.356Z,32.15
2019-03-24T15:39:59.492Z,33.38
2019-03-24T15:42:30.965Z,31.56
2019-03-24T15:45:02.215Z,32.23
2019-03-24T15:47:33.423Z,32.55
2019-03-24T15:50:05.801Z,31.73
2019-03-24T15:52:37.346Z,29.88
2019-03-24T15:55:08.982Z,29.04
2019-03-24T15:57:40.299Z,30.64
2019-03-24T16:00:11.640Z,30.35
2019-03-24T16:02:43.127Z,30.34
2019-03-24T16:05:14.225Z,29.76
2019-03-24T16:07:45.004Z,29.31
2019-03-24T16:10:16.172Z,29.92
2019-03-24T16:12:47.008Z,29.18
2019-03-24T16:15:17.996Z,29.97
2019-03-24T16:17:49.304Z,29.57
2019-03-24T16:20:21.304Z,29.69
2019-03-24T16:22:52.563Z,28.17
2019-03-24T16:25:23.404Z,26.49
2019-03-24T16:27:54.899Z,25.94
2019-03-24T16:30:25.679Z,27.13
2019-03-24T16:32:57.068Z,26.06
2019-03-24T16:35:28.306Z,26.65
2019-03-24T16:37:59.563Z,27.33
2019-03-24T16:40:31.184Z,26.71
2019-03-24T16:43:02.423Z,25.67
2019-03-24T16:45:33.774Z,25.74
2019-03-24T16:48:05.050Z,24.11
2019-03-24T16:50:36.643Z,23.79
2019-03-24T16:53:07.917Z,22.46
2019-03-24T16:55:38.673Z,22.01
2019-03-24T16:58:10.113Z,21.95
2019-03-24T17:00:41.697Z,21.20
2019-03-24T17:03:12.533Z,20.64
2019-03-24T17:05:43.850Z,19.72
2019-03-24T17:08:14.764Z,18.73
2019-03-24T17:10:45.627Z,18.08
2019-03-24T17:13:18.300Z,17.60
2019-03-24T17:15:49.858Z,17.25
2019-03-24T17:18:21.183Z,16.93
2019-03-24T17:20:53.370Z,16.66
2019-03-24T17:23:24.557Z,16.44
2019-03-24T17:25:56.682Z,16.22
2019-03-24T17:28:28.271Z,15.91
2019-03-24T17:30:59.067Z,15.66
2019-03-24T17:33:30.130Z,15.45
2019-03-24T17:36:02.432Z,15.28
2019-03-24T17:38:34.666Z,15.20
2019-03-24T17:41:06.670Z,15.03
2019-03-24T17:43:37.742Z,14.90
2019-03-24T17:46:08.612Z,14.90
2019-03-24T17:48:39.484Z,14.75
2019-03-24T17:51:10.693Z,14.61
2019-03-24T17:53:41.579Z,14.46
2019-03-24T17:56:13.085Z,14.42
2019-03-24T17:58:45.455Z,14.28
2019-03-24T18:01:18.124Z,14.18
2019-03-24T18:03:48.934Z,14.03
2019-03-24T18:06:20.190Z,13.93
2019-03-24T18:08:51.492Z,13.88
2019-03-24T18:11:22.330Z,13.78
2019-03-24T18:13:53.899Z,13.80
2019-03-24T18:16:24.764Z,13.74
2019-03-24T18:18:56.133Z,13.77
2019-03-24T18:21:26.938Z,13.69
2019-03-24T18:23:58.083Z,13.54
2019-03-24T18:26:28.883Z,13.57
2019-03-24T18:28:59.663Z,13.54
2019-03-24T18:31:30.458Z,13.40
2019-03-24T18:34:01.344Z,13.31
2019-03-24T18:36:32.598Z,13.23
2019-03-24T18:39:03.883Z,13.19
2019-03-24T18:41:35.686Z,13.22
2019-03-24T18:44:06.885Z,13.20
2019-03-24T18:46:38.103Z,13.20
2019-03-24T18:49:08.933Z,13.11
2019-03-24T18:51:39.741Z,12.98
2019-03-24T18:54:10.624Z,12.97
2019-03-24T18:56:41.860Z,12.80
2019-03-24T18:59:12.948Z,12.70
2019-03-24T19:01:44.623Z,12.66
2019-03-24T19:04:15.946Z,12.61
2019-03-24T19:06:47.094Z,12.54
2019-03-24T19:09:18.198Z,12.55
2019-03-24T19:11:49.072Z,12.61
2019-03-24T19:14:20.141Z,12.71
2019-03-24T19:16:50.943Z,12.74
2019-03-24T19:19:22.131Z,12.63
2019-03-24T19:21:52.916Z,12.61
2019-03-24T19:24:24.172Z,12.42
2019-03-24T19:26:55.691Z,12.42
2019-03-24T19:29:28.475Z,12.36
2019-03-24T19:31:59.766Z,12.32
2019-03-24T19:34:30.716Z,12.17
2019-03-24T19:37:01.539Z,12.11
2019-03-24T19:39:33.391Z,12.09
2019-03-24T19:42:04.604Z,11.93
2019-03-24T19:44:35.726Z,11.86
2019-03-24T19:47:06.510Z,11.81
2019-03-24T19:49:37.323Z,11.65
2019-03-24T19:52:08.641Z,11.70
2019-03-24T19:54:39.487Z,11.51
2019-03-24T19:57:10.649Z,11.57
2019-03-24T19:59:41.474Z,11.50
2019-03-24T20:02:12.620Z,11.48
2019-03-24T20:04:43.745Z,11.46
2019-03-24T20:07:14.555Z,11.46
2019-03-24T20:09:45.434Z,11.36
2019-03-24T20:12:16.251Z,11.39
2019-03-24T20:14:47.633Z,11.17
2019-03-24T20:17:18.557Z,10.92
2019-03-24T20:19:49.947Z,10.71
2019-03-24T20:22:20.790Z,10.61
2019-03-24T20:24:51.903Z,10.52
2019-03-24T20:27:22.765Z,10.58
2019-03-24T20:29:53.767Z,10.91
2019-03-24T20:32:25.432Z,10.92
2019-03-24T20:34:57.712Z,11.04
2019-03-24T20:37:28.828Z,10.92
2019-03-24T20:40:00.402Z,10.77
2019-03-24T20:42:31.808Z,10.70
2019-03-24T20:45:03.185Z,10.61
2019-03-24T20:47:34.998Z,10.78
2019-03-24T20:50:06.625Z,10.81
2019-03-24T20:52:38.385Z,10.78
2019-03-24T20:55:10.736Z,10.76
2019-03-24T20:57:41.992Z,10.54
2019-03-24T21:00:14.003Z,10.44
2019-03-24T21:02:45.970Z,10.33
2019-03-24T21:05:16.800Z,10.22
2019-03-24T21:07:49.595Z,10.28
2019-03-24T21:10:20.738Z,10.35
2019-03-24T21:12:51.930Z,10.33
2019-03-24T21:15:22.923Z,10.26
2019-03-24T21:17:54.347Z,10.09
2019-03-24T21:20:25.220Z,9.92
2019-03-24T21:22:56.709Z,9.73
2019-03-24T21:25:28.787Z,9.63
2019-03-24T21:27:59.927Z,9.47
2019-03-24T21:30:38.882Z,9.36
2019-03-24T21:33:10.306Z,9.28
2019-03-24T21:35:42.068Z,9.19
2019-03-24T21:38:13.607Z,9.14
2019-03-24T21:40:44.404Z,9.11
2019-03-24T21:43:15.905Z,9.11
2019-03-24T21:45:47.046Z,9.10
2019-03-24T21:48:18.868Z,9.01
2019-03-24T21:50:50.054Z,8.85
2019-03-24T21:53:21.607Z,8.67
2019-03-24T21:55:52.442Z,8.53
2019-03-24T21:58:24.409Z,8.43
2019-03-24T22:00:55.210Z,8.38
2019-03-24T22:03:26.394Z,8.36
2019-03-24T22:05:57.595Z,8.28
2019-03-24T22:08:29.080Z,8.20
2019-03-24T22:11:00.188Z,8.21
2019-03-24T22:13:31.001Z,8.09
2019-03-24T22:16:01.800Z,7.97
2019-03-24T22:18:33.711Z,7.91
2019-03-24T22:21:04.807Z,7.85
2019-03-24T22:23:36.364Z,7.77
2019-03-24T22:26:08.016Z,7.72
2019-03-24T22:28:39.256Z,7.70
2019-03-24T22:31:10.420Z,7.67
2019-03-24T22:33:41.234Z,7.64
2019-03-24T22:36:12.131Z,7.44
2019-03-24T22:38:43.543Z,7.44
2019-03-24T22:41:15.247Z,7.40
2019-03-24T22:43:47.192Z,7.33
2019-03-24T22:46:18.695Z,7.27
2019-03-24T22:48:49.951Z,7.25
2019-03-24T22:51:20.843Z,7.22
2019-03-24T22:54:02.776Z,7.18
2019-03-24T22:56:24.505Z,7.13
2019-03-24T22:58:56.570Z,7.09
2019-03-24T23:01:27.890Z,7.07
2019-03-24T23:03:58.864Z,6.98
2019-03-24T23:06:30.001Z,6.94
2019-03-24T23:09:00.841Z,6.92
2019-03-24T23:11:32.712Z,6.91
2019-03-24T23:14:03.593Z,6.86
2019-03-24T23:16:34.380Z,6.81
2019-03-24T23:19:07.067Z,6.79
2019-03-24T23:21:38.562Z,6.74
2019-03-24T23:24:15.480Z,6.71
2019-03-24T23:26:43.669Z,6.73
2019-03-24T23:29:14.640Z,6.77
2019-03-24T23:31:45.566Z,6.81
2019-03-24T23:34:16.481Z,6.82
2019-03-24T23:36:47.214Z,6.84
2019-03-24T23:39:18.461Z,6.83
2019-03-24T23:41:49.373Z,6.86
2019-03-24T23:44:20.209Z,6.98
2019-03-24T23:46:51.486Z,7.10
2019-03-24T23:49:22.728Z,7.19
2019-03-24T23:51:53.593Z,7.19
2019-03-24T23:54:27.234Z,7.20
2019-03-24T23:56:57.011Z,7.25
2019-03-24T23:59:28.958Z,7.31
